首页
METAR-TAF:

METAR-TAF

机场 :

斯瓦尔巴朗伊尔机场

朗伊爾城, 挪威

纬度: 78-15N, 经度: 015-28E, 海拔: 2米

当前天气观测

该预报发布于47分钟前的18:50 UTC
风速5节,风向西转西北
温度 -1°C
湿度 64%
气压 1019 hPa
能见度10公里或以上
少量云层高于2100英尺

METAR: ENSB 231850Z 30005KT 9999 FEW021 M01/M07 Q1019 RMK WIND 1400FT 33006KT

时间: 21:37 (19:37 UTC)

预报

预报有效从23日的 18点(UTC)到 24日的 18点(UTC)
风速8节,风向北转西北
能见度10公里或以上
少量云层高于2000英尺

TAF: ENSB 2318/2418 34008KT 9999 FEW020

超过4000个机场的气象观测和天气预报(METAR&TAF报告)。

可查询的气象台以黄色和红色小点在地图上表示。

将鼠标移到小点上方,可查看气象台名称。

然后点击查看天气观测和预报。

如需切换地图:点击带黑十字的绿色按钮放大地图;点击带横线的绿色按钮缩小地图;或者点击绿色箭头查看邻近地区的地图。


METAR-TAF: